sensor_id;sensor_type;location;lat;lon;timestamp;P1;durP1;ratioP1;P2;durP2;ratioP2
13445;SDS011;6795;51.232;3.764;2024-02-26T00:02:53;3.17;;;1.13;;
13445;SDS011;6795;51.232;3.764;2024-02-26T00:06:21;4.10;;;1.13;;
13445;SDS011;6795;51.232;3.764;2024-02-26T00:10:02;1.77;;;1.20;;
13445;SDS011;6795;51.232;3.764;2024-02-26T00:13:04;3.03;;;1.30;;
13445;SDS011;6795;51.232;3.764;2024-02-26T00:19:34;1.60;;;1.50;;
13445;SDS011;6795;51.232;3.764;2024-02-26T00:26:25;4.38;;;1.58;;
13445;SDS011;6795;51.232;3.764;2024-02-26T00:29:30;1.85;;;1.42;;
13445;SDS011;6795;51.232;3.764;2024-02-26T00:33:03;1.65;;;1.52;;
13445;SDS011;6795;51.232;3.764;2024-02-26T00:36:11;2.65;;;1.50;;
13445;SDS011;6795;51.232;3.764;2024-02-26T00:42:56;2.67;;;1.63;;
13445;SDS011;6795;51.232;3.764;2024-02-26T00:47:05;3.17;;;1.85;;
13445;SDS011;6795;51.232;3.764;2024-02-26T00:50:41;2.78;;;1.70;;
13445;SDS011;6795;51.232;3.764;2024-02-26T00:53:58;1.98;;;1.88;;
13445;SDS011;6795;51.232;3.764;2024-02-26T00:57:18;3.83;;;1.67;;
13445;SDS011;6795;51.232;3.764;2024-02-26T01:04:18;3.35;;;1.80;;
13445;SDS011;6795;51.232;3.764;2024-02-26T01:08:06;1.55;;;1.50;;
13445;SDS011;6795;51.232;3.764;2024-02-26T01:11:45;6.13;;;2.10;;
13445;SDS011;6795;51.232;3.764;2024-02-26T01:14:51;1.30;;;1.20;;
13445;SDS011;6795;51.232;3.764;2024-02-26T01:18:05;1.80;;;1.33;;
13445;SDS011;6795;51.232;3.764;2024-02-26T01:21:42;1.90;;;1.80;;
13445;SDS011;6795;51.232;3.764;2024-02-26T01:25:21;2.67;;;1.25;;
13445;SDS011;6795;51.232;3.764;2024-02-26T01:28:42;2.05;;;1.35;;
13445;SDS011;6795;51.232;3.764;2024-02-26T01:32:38;2.72;;;1.50;;
13445;SDS011;6795;51.232;3.764;2024-02-26T01:35:46;2.85;;;1.63;;
13445;SDS011;6795;51.232;3.764;2024-02-26T01:43:01;1.88;;;1.25;;
13445;SDS011;6795;51.232;3.764;2024-02-26T01:46:14;1.83;;;1.20;;
13445;SDS011;6795;51.232;3.764;2024-02-26T01:53:34;1.42;;;1.33;;
13445;SDS011;6795;51.232;3.764;2024-02-26T01:56:48;2.03;;;1.90;;
13445;SDS011;6795;51.232;3.764;2024-02-26T02:04:12;1.63;;;1.52;;
13445;SDS011;6795;51.232;3.764;2024-02-26T02:10:45;5.25;;;3.13;;
13445;SDS011;6795;51.232;3.764;2024-02-26T02:14:15;3.63;;;2.90;;
13445;SDS011;6795;51.232;3.764;2024-02-26T02:17:45;2.92;;;2.72;;
13445;SDS011;6795;51.232;3.764;2024-02-26T02:21:25;3.88;;;3.05;;
13445;SDS011;6795;51.232;3.764;2024-02-26T02:25:12;3.65;;;2.47;;
13445;SDS011;6795;51.232;3.764;2024-02-26T02:28:18;2.80;;;2.60;;
13445;SDS011;6795;51.232;3.764;2024-02-26T02:32:01;3.17;;;2.80;;
13445;SDS011;6795;51.232;3.764;2024-02-26T02:35:13;3.33;;;3.15;;
13445;SDS011;6795;51.232;3.764;2024-02-26T02:42:00;4.88;;;4.47;;
13445;SDS011;6795;51.232;3.764;2024-02-26T02:45:30;4.85;;;4.35;;
13445;SDS011;6795;51.232;3.764;2024-02-26T02:49:19;7.20;;;4.82;;
13445;SDS011;6795;51.232;3.764;2024-02-26T02:52:31;5.05;;;4.65;;
13445;SDS011;6795;51.232;3.764;2024-02-26T02:59:44;6.30;;;5.40;;
13445;SDS011;6795;51.232;3.764;2024-02-26T03:02:47;6.53;;;5.93;;
13445;SDS011;6795;51.232;3.764;2024-02-26T03:05:58;5.97;;;5.47;;
13445;SDS011;6795;51.232;3.764;2024-02-26T03:09:27;6.50;;;5.90;;
13445;SDS011;6795;51.232;3.764;2024-02-26T03:17:01;6.40;;;5.90;;
13445;SDS011;6795;51.232;3.764;2024-02-26T03:20:26;7.50;;;6.90;;
13445;SDS011;6795;51.232;3.764;2024-02-26T03:23:57;6.32;;;5.72;;
13445;SDS011;6795;51.232;3.764;2024-02-26T03:27:06;7.32;;;6.63;;
13445;SDS011;6795;51.232;3.764;2024-02-26T03:34:13;9.82;;;5.35;;
13445;SDS011;6795;51.232;3.764;2024-02-26T03:37:52;4.40;;;4.05;;
13445;SDS011;6795;51.232;3.764;2024-02-26T03:40:36;4.38;;;3.97;;
13445;SDS011;6795;51.232;3.764;2024-02-26T03:44:35;3.40;;;3.15;;
13445;SDS011;6795;51.232;3.764;2024-02-26T03:47:37;3.78;;;3.30;;
13445;SDS011;6795;51.232;3.764;2024-02-26T03:50:57;4.43;;;3.58;;
13445;SDS011;6795;51.232;3.764;2024-02-26T03:54:22;4.18;;;3.88;;
13445;SDS011;6795;51.232;3.764;2024-02-26T03:58:01;4.35;;;3.95;;
13445;SDS011;6795;51.232;3.764;2024-02-26T04:01:24;4.25;;;3.88;;
13445;SDS011;6795;51.232;3.764;2024-02-26T04:04:41;4.32;;;3.92;;
13445;SDS011;6795;51.232;3.764;2024-02-26T04:08:17;3.63;;;3.42;;
13445;SDS011;6795;51.232;3.764;2024-02-26T04:10:59;3.95;;;3.50;;
13445;SDS011;6795;51.232;3.764;2024-02-26T04:14:41;4.32;;;3.30;;
13445;SDS011;6795;51.232;3.764;2024-02-26T04:18:06;3.85;;;3.60;;
13445;SDS011;6795;51.232;3.764;2024-02-26T04:25:22;3.67;;;3.38;;
13445;SDS011;6795;51.232;3.764;2024-02-26T04:28:38;4.07;;;3.47;;
13445;SDS011;6795;51.232;3.764;2024-02-26T04:32:21;5.45;;;4.85;;
13445;SDS011;6795;51.232;3.764;2024-02-26T04:35:18;10.35;;;7.38;;
13445;SDS011;6795;51.232;3.764;2024-02-26T04:38:42;7.32;;;6.05;;
13445;SDS011;6795;51.232;3.764;2024-02-26T04:41:47;10.05;;;6.82;;
13445;SDS011;6795;51.232;3.764;2024-02-26T04:45:00;7.90;;;5.40;;
13445;SDS011;6795;51.232;3.764;2024-02-26T04:48:20;8.18;;;5.13;;
13445;SDS011;6795;51.232;3.764;2024-02-26T04:51:40;18.38;;;10.85;;
13445;SDS011;6795;51.232;3.764;2024-02-26T04:58:45;9.98;;;6.53;;
13445;SDS011;6795;51.232;3.764;2024-02-26T05:01:49;17.30;;;10.38;;
13445;SDS011;6795;51.232;3.764;2024-02-26T05:05:08;16.83;;;10.63;;
13445;SDS011;6795;51.232;3.764;2024-02-26T05:08:22;15.70;;;9.95;;
13445;SDS011;6795;51.232;3.764;2024-02-26T05:11:28;14.27;;;9.10;;
13445;SDS011;6795;51.232;3.764;2024-02-26T05:18:09;12.18;;;8.52;;
13445;SDS011;6795;51.232;3.764;2024-02-26T05:21:29;6.10;;;5.05;;
13445;SDS011;6795;51.232;3.764;2024-02-26T05:25:03;5.63;;;5.07;;
13445;SDS011;6795;51.232;3.764;2024-02-26T05:28:15;5.90;;;5.32;;
13445;SDS011;6795;51.232;3.764;2024-02-26T05:31:27;5.63;;;5.13;;
13445;SDS011;6795;51.232;3.764;2024-02-26T05:38:09;8.10;;;6.63;;
13445;SDS011;6795;51.232;3.764;2024-02-26T05:40:50;7.13;;;6.45;;
13445;SDS011;6795;51.232;3.764;2024-02-26T05:44:16;7.25;;;6.22;;
13445;SDS011;6795;51.232;3.764;2024-02-26T05:47:18;6.68;;;6.07;;
13445;SDS011;6795;51.232;3.764;2024-02-26T05:50:49;7.95;;;6.65;;
13445;SDS011;6795;51.232;3.764;2024-02-26T05:54:25;6.95;;;6.20;;
13445;SDS011;6795;51.232;3.764;2024-02-26T05:57:41;7.32;;;6.63;;
13445;SDS011;6795;51.232;3.764;2024-02-26T06:00:39;6.80;;;6.30;;
13445;SDS011;6795;51.232;3.764;2024-02-26T06:03:45;7.30;;;6.65;;
13445;SDS011;6795;51.232;3.764;2024-02-26T06:06:57;7.28;;;6.57;;
13445;SDS011;6795;51.232;3.764;2024-02-26T06:10:15;7.55;;;6.85;;
13445;SDS011;6795;51.232;3.764;2024-02-26T06:13:15;8.52;;;6.78;;
13445;SDS011;6795;51.232;3.764;2024-02-26T06:16:10;6.55;;;6.03;;
13445;SDS011;6795;51.232;3.764;2024-02-26T06:19:37;7.53;;;6.82;;
13445;SDS011;6795;51.232;3.764;2024-02-26T06:22:37;6.72;;;6.22;;
13445;SDS011;6795;51.232;3.764;2024-02-26T06:29:29;6.82;;;6.22;;
13445;SDS011;6795;51.232;3.764;2024-02-26T06:32:36;7.82;;;6.53;;
13445;SDS011;6795;51.232;3.764;2024-02-26T06:39:45;8.38;;;6.63;;
13445;SDS011;6795;51.232;3.764;2024-02-26T06:43:25;6.30;;;5.80;;
13445;SDS011;6795;51.232;3.764;2024-02-26T06:46:02;6.70;;;6.10;;
13445;SDS011;6795;51.232;3.764;2024-02-26T06:49:11;6.32;;;5.72;;
13445;SDS011;6795;51.232;3.764;2024-02-26T06:52:42;5.28;;;4.88;;
13445;SDS011;6795;51.232;3.764;2024-02-26T06:55:42;4.55;;;4.25;;
13445;SDS011;6795;51.232;3.764;2024-02-26T06:58:56;6.25;;;5.65;;
13445;SDS011;6795;51.232;3.764;2024-02-26T07:02:24;6.43;;;5.78;;
13445;SDS011;6795;51.232;3.764;2024-02-26T07:05:31;7.63;;;4.78;;
13445;SDS011;6795;51.232;3.764;2024-02-26T07:08:56;5.95;;;5.45;;
13445;SDS011;6795;51.232;3.764;2024-02-26T07:12:27;10.02;;;6.70;;
13445;SDS011;6795;51.232;3.764;2024-02-26T07:15:27;5.93;;;4.72;;
13445;SDS011;6795;51.232;3.764;2024-02-26T07:19:10;9.85;;;5.60;;
13445;SDS011;6795;51.232;3.764;2024-02-26T07:22:27;4.63;;;4.22;;
13445;SDS011;6795;51.232;3.764;2024-02-26T07:25:40;7.82;;;5.28;;
13445;SDS011;6795;51.232;3.764;2024-02-26T07:29:03;5.63;;;4.68;;
13445;SDS011;6795;51.232;3.764;2024-02-26T07:32:55;5.68;;;4.80;;
13445;SDS011;6795;51.232;3.764;2024-02-26T07:39:34;7.68;;;4.85;;
13445;SDS011;6795;51.232;3.764;2024-02-26T07:42:51;8.60;;;5.53;;
13445;SDS011;6795;51.232;3.764;2024-02-26T07:46:02;5.63;;;3.90;;
13445;SDS011;6795;51.232;3.764;2024-02-26T07:49:08;4.05;;;3.70;;
13445;SDS011;6795;51.232;3.764;2024-02-26T07:52:25;7.07;;;5.45;;
13445;SDS011;6795;51.232;3.764;2024-02-26T07:55:50;8.93;;;3.92;;
13445;SDS011;6795;51.232;3.764;2024-02-26T07:59:02;5.13;;;4.05;;
13445;SDS011;6795;51.232;3.764;2024-02-26T08:02:39;5.18;;;4.32;;
13445;SDS011;6795;51.232;3.764;2024-02-26T08:06:22;5.22;;;3.72;;
13445;SDS011;6795;51.232;3.764;2024-02-26T08:09:27;3.20;;;2.88;;
13445;SDS011;6795;51.232;3.764;2024-02-26T08:12:43;4.57;;;3.20;;
13445;SDS011;6795;51.232;3.764;2024-02-26T08:15:46;3.97;;;3.65;;
13445;SDS011;6795;51.232;3.764;2024-02-26T08:19:59;4.00;;;3.05;;
13445;SDS011;6795;51.232;3.764;2024-02-26T08:22:35;3.75;;;3.45;;
13445;SDS011;6795;51.232;3.764;2024-02-26T08:26:05;3.28;;;2.97;;
13445;SDS011;6795;51.232;3.764;2024-02-26T08:33:18;5.10;;;3.70;;
13445;SDS011;6795;51.232;3.764;2024-02-26T08:36:30;3.97;;;3.47;;
13445;SDS011;6795;51.232;3.764;2024-02-26T08:39:40;3.97;;;3.70;;
13445;SDS011;6795;51.232;3.764;2024-02-26T08:42:51;4.55;;;4.15;;
13445;SDS011;6795;51.232;3.764;2024-02-26T08:46:07;6.82;;;5.18;;
13445;SDS011;6795;51.232;3.764;2024-02-26T08:49:21;5.43;;;5.00;;
13445;SDS011;6795;51.232;3.764;2024-02-26T08:52:23;7.72;;;5.82;;
13445;SDS011;6795;51.232;3.764;2024-02-26T08:56:30;6.13;;;5.28;;
13445;SDS011;6795;51.232;3.764;2024-02-26T08:59:13;7.55;;;6.80;;
13445;SDS011;6795;51.232;3.764;2024-02-26T09:16:52;10.05;;;8.80;;
13445;SDS011;6795;51.232;3.764;2024-02-26T09:19:59;11.48;;;10.27;;
13445;SDS011;6795;51.232;3.764;2024-02-26T09:23:35;12.50;;;10.30;;
13445;SDS011;6795;51.232;3.764;2024-02-26T09:26:57;12.30;;;9.60;;
13445;SDS011;6795;51.232;3.764;2024-02-26T09:30:05;12.52;;;10.30;;
13445;SDS011;6795;51.232;3.764;2024-02-26T09:33:29;12.15;;;10.07;;
13445;SDS011;6795;51.232;3.764;2024-02-26T09:36:42;13.05;;;11.00;;
13445;SDS011;6795;51.232;3.764;2024-02-26T09:43:42;15.32;;;11.68;;
13445;SDS011;6795;51.232;3.764;2024-02-26T09:46:44;19.08;;;13.95;;
13445;SDS011;6795;51.232;3.764;2024-02-26T10:03:38;20.50;;;16.85;;
13445;SDS011;6795;51.232;3.764;2024-02-26T10:07:07;23.65;;;18.23;;
13445;SDS011;6795;51.232;3.764;2024-02-26T10:11:05;20.70;;;17.98;;
13445;SDS011;6795;51.232;3.764;2024-02-26T10:14:02;23.00;;;18.58;;
13445;SDS011;6795;51.232;3.764;2024-02-26T10:17:33;19.33;;;16.55;;
13445;SDS011;6795;51.232;3.764;2024-02-26T10:20:39;21.88;;;17.50;;
13445;SDS011;6795;51.232;3.764;2024-02-26T10:24:13;20.52;;;18.10;;
13445;SDS011;6795;51.232;3.764;2024-02-26T10:27:17;22.35;;;17.15;;
13445;SDS011;6795;51.232;3.764;2024-02-26T10:30:41;21.20;;;17.13;;
13445;SDS011;6795;51.232;3.764;2024-02-26T10:34:28;20.15;;;18.05;;
13445;SDS011;6795;51.232;3.764;2024-02-26T10:40:55;19.83;;;17.83;;
13445;SDS011;6795;51.232;3.764;2024-02-26T10:43:56;20.10;;;18.00;;
13445;SDS011;6795;51.232;3.764;2024-02-26T10:47:03;19.38;;;17.30;;
13445;SDS011;6795;51.232;3.764;2024-02-26T10:50:07;19.90;;;17.30;;
13445;SDS011;6795;51.232;3.764;2024-02-26T10:53:35;21.20;;;15.85;;
13445;SDS011;6795;51.232;3.764;2024-02-26T11:10:50;14.20;;;12.80;;
13445;SDS011;6795;51.232;3.764;2024-02-26T11:14:33;13.13;;;11.82;;
13445;SDS011;6795;51.232;3.764;2024-02-26T11:17:41;13.75;;;12.32;;
13445;SDS011;6795;51.232;3.764;2024-02-26T11:20:48;14.65;;;11.68;;
13445;SDS011;6795;51.232;3.764;2024-02-26T11:23:54;13.50;;;11.07;;
13445;SDS011;6795;51.232;3.764;2024-02-26T11:26:58;10.45;;;9.35;;
13445;SDS011;6795;51.232;3.764;2024-02-26T11:30:31;11.27;;;9.98;;
13445;SDS011;6795;51.232;3.764;2024-02-26T11:33:50;9.65;;;8.68;;
13445;SDS011;6795;51.232;3.764;2024-02-26T11:37:12;10.13;;;9.13;;
13445;SDS011;6795;51.232;3.764;2024-02-26T11:40:26;8.43;;;7.60;;
13445;SDS011;6795;51.232;3.764;2024-02-26T11:47:20;8.38;;;7.32;;
13445;SDS011;6795;51.232;3.764;2024-02-26T11:51:09;8.32;;;7.53;;
13445;SDS011;6795;51.232;3.764;2024-02-26T11:54:09;7.85;;;7.20;;
13445;SDS011;6795;51.232;3.764;2024-02-26T11:57:37;6.88;;;6.05;;
13445;SDS011;6795;51.232;3.764;2024-02-26T12:01:16;6.40;;;5.90;;
13445;SDS011;6795;51.232;3.764;2024-02-26T12:04:37;6.57;;;5.97;;
13445;SDS011;6795;51.232;3.764;2024-02-26T12:07:34;6.03;;;5.43;;
13445;SDS011;6795;51.232;3.764;2024-02-26T12:10:42;6.47;;;5.80;;
13445;SDS011;6795;51.232;3.764;2024-02-26T12:14:08;5.35;;;4.93;;
13445;SDS011;6795;51.232;3.764;2024-02-26T12:18:00;5.90;;;5.38;;
13445;SDS011;6795;51.232;3.764;2024-02-26T12:21:34;5.15;;;4.55;;
13445;SDS011;6795;51.232;3.764;2024-02-26T12:24:44;5.32;;;4.93;;
13445;SDS011;6795;51.232;3.764;2024-02-26T12:35:17;5.80;;;5.30;;
13445;SDS011;6795;51.232;3.764;2024-02-26T12:39:01;5.57;;;4.85;;
13445;SDS011;6795;51.232;3.764;2024-02-26T12:41:40;6.18;;;5.63;;
13445;SDS011;6795;51.232;3.764;2024-02-26T12:45:05;6.88;;;5.95;;
13445;SDS011;6795;51.232;3.764;2024-02-26T12:48:54;6.20;;;4.80;;
13445;SDS011;6795;51.232;3.764;2024-02-26T12:52:10;5.57;;;4.97;;
13445;SDS011;6795;51.232;3.764;2024-02-26T12:55:28;5.15;;;4.75;;
13445;SDS011;6795;51.232;3.764;2024-02-26T12:58:44;7.70;;;5.47;;
13445;SDS011;6795;51.232;3.764;2024-02-26T13:02:29;6.22;;;5.40;;
13445;SDS011;6795;51.232;3.764;2024-02-26T13:05:23;6.03;;;4.97;;
13445;SDS011;6795;51.232;3.764;2024-02-26T13:22:14;5.40;;;4.82;;
13445;SDS011;6795;51.232;3.764;2024-02-26T13:25:26;5.43;;;4.93;;
13445;SDS011;6795;51.232;3.764;2024-02-26T13:28:27;4.70;;;4.38;;
13445;SDS011;6795;51.232;3.764;2024-02-26T13:32:00;4.63;;;4.32;;
13445;SDS011;6795;51.232;3.764;2024-02-26T13:45:27;5.32;;;4.82;;
13445;SDS011;6795;51.232;3.764;2024-02-26T13:48:35;5.40;;;4.93;;
13445;SDS011;6795;51.232;3.764;2024-02-26T13:51:54;6.00;;;5.40;;
13445;SDS011;6795;51.232;3.764;2024-02-26T13:55:22;5.28;;;4.78;;
13445;SDS011;6795;51.232;3.764;2024-02-26T13:59:26;6.72;;;5.32;;
13445;SDS011;6795;51.232;3.764;2024-02-26T14:02:10;5.95;;;5.45;;
13445;SDS011;6795;51.232;3.764;2024-02-26T14:05:20;5.78;;;5.28;;
13445;SDS011;6795;51.232;3.764;2024-02-26T14:08:10;9.30;;;5.75;;
13445;SDS011;6795;51.232;3.764;2024-02-26T14:11:44;10.93;;;6.22;;
13445;SDS011;6795;51.232;3.764;2024-02-26T14:19:03;7.38;;;6.18;;
13445;SDS011;6795;51.232;3.764;2024-02-26T14:22:08;6.70;;;6.13;;
13445;SDS011;6795;51.232;3.764;2024-02-26T14:25:18;6.57;;;6.03;;
13445;SDS011;6795;51.232;3.764;2024-02-26T14:28:55;8.35;;;7.22;;
13445;SDS011;6795;51.232;3.764;2024-02-26T14:32:37;7.97;;;7.05;;
13445;SDS011;6795;51.232;3.764;2024-02-26T14:46:32;6.93;;;6.28;;
13445;SDS011;6795;51.232;3.764;2024-02-26T14:49:54;8.52;;;7.18;;
13445;SDS011;6795;51.232;3.764;2024-02-26T14:52:51;7.95;;;7.15;;
13445;SDS011;6795;51.232;3.764;2024-02-26T14:55:56;8.90;;;7.43;;
13445;SDS011;6795;51.232;3.764;2024-02-26T14:59:07;7.65;;;7.05;;
13445;SDS011;6795;51.232;3.764;2024-02-26T15:09:13;7.38;;;6.68;;
13445;SDS011;6795;51.232;3.764;2024-02-26T15:12:51;9.05;;;7.00;;
13445;SDS011;6795;51.232;3.764;2024-02-26T15:16:03;8.65;;;6.57;;
13445;SDS011;6795;51.232;3.764;2024-02-26T15:19:12;5.70;;;5.22;;
13445;SDS011;6795;51.232;3.764;2024-02-26T15:27:04;7.85;;;5.97;;
13445;SDS011;6795;51.232;3.764;2024-02-26T15:30:10;7.82;;;5.55;;
13445;SDS011;6795;51.232;3.764;2024-02-26T15:33:19;6.45;;;5.82;;
13445;SDS011;6795;51.232;3.764;2024-02-26T15:40:24;6.50;;;5.85;;
13445;SDS011;6795;51.232;3.764;2024-02-26T15:46:50;6.03;;;5.53;;
13445;SDS011;6795;51.232;3.764;2024-02-26T15:50:11;5.88;;;4.78;;
13445;SDS011;6795;51.232;3.764;2024-02-26T15:53:21;6.25;;;5.70;;
13445;SDS011;6795;51.232;3.764;2024-02-26T15:56:38;5.75;;;4.70;;
13445;SDS011;6795;51.232;3.764;2024-02-26T15:59:44;7.28;;;5.07;;
13445;SDS011;6795;51.232;3.764;2024-02-26T16:02:46;3.72;;;3.42;;
13445;SDS011;6795;51.232;3.764;2024-02-26T16:06:11;3.60;;;3.28;;
13445;SDS011;6795;51.232;3.764;2024-02-26T16:09:38;5.45;;;4.43;;
13445;SDS011;6795;51.232;3.764;2024-02-26T16:12:53;4.00;;;3.60;;
13445;SDS011;6795;51.232;3.764;2024-02-26T16:16:21;3.28;;;3.00;;
13445;SDS011;6795;51.232;3.764;2024-02-26T16:23:00;5.85;;;3.50;;
13445;SDS011;6795;51.232;3.764;2024-02-26T16:26:10;5.18;;;3.75;;
13445;SDS011;6795;51.232;3.764;2024-02-26T16:29:27;3.97;;;3.58;;
13445;SDS011;6795;51.232;3.764;2024-02-26T16:33:17;2.88;;;2.15;;
13445;SDS011;6795;51.232;3.764;2024-02-26T16:38:34;2.80;;;2.60;;
13445;SDS011;6795;51.232;3.764;2024-02-26T16:40:16;4.55;;;2.13;;
13445;SDS011;6795;51.232;3.764;2024-02-26T16:43:18;2.92;;;2.65;;
13445;SDS011;6795;51.232;3.764;2024-02-26T16:46:45;4.13;;;2.75;;
13445;SDS011;6795;51.232;3.764;2024-02-26T16:50:19;4.18;;;2.47;;
13445;SDS011;6795;51.232;3.764;2024-02-26T16:53:48;2.35;;;1.80;;
13445;SDS011;6795;51.232;3.764;2024-02-26T16:57:30;2.92;;;1.80;;
13445;SDS011;6795;51.232;3.764;2024-02-26T17:00:52;1.52;;;1.42;;
13445;SDS011;6795;51.232;3.764;2024-02-26T17:04:03;2.05;;;1.85;;
13445;SDS011;6795;51.232;3.764;2024-02-26T17:10:35;2.67;;;2.25;;
13445;SDS011;6795;51.232;3.764;2024-02-26T17:17:14;2.55;;;2.33;;
13445;SDS011;6795;51.232;3.764;2024-02-26T17:20:28;4.07;;;2.10;;
13445;SDS011;6795;51.232;3.764;2024-02-26T17:23:27;2.30;;;2.13;;
13445;SDS011;6795;51.232;3.764;2024-02-26T17:27:08;4.05;;;2.63;;
13445;SDS011;6795;51.232;3.764;2024-02-26T17:30:43;4.85;;;2.30;;
13445;SDS011;6795;51.232;3.764;2024-02-26T17:33:52;2.70;;;2.50;;
13445;SDS011;6795;51.232;3.764;2024-02-26T17:37:22;4.18;;;2.83;;
13445;SDS011;6795;51.232;3.764;2024-02-26T17:40:28;3.78;;;3.40;;
13445;SDS011;6795;51.232;3.764;2024-02-26T17:43:36;2.95;;;2.55;;
13445;SDS011;6795;51.232;3.764;2024-02-26T17:46:46;3.47;;;2.42;;
13445;SDS011;6795;51.232;3.764;2024-02-26T17:50:13;2.67;;;2.33;;
13445;SDS011;6795;51.232;3.764;2024-02-26T17:53:02;5.90;;;2.70;;
13445;SDS011;6795;51.232;3.764;2024-02-26T17:56:26;4.88;;;2.55;;
13445;SDS011;6795;51.232;3.764;2024-02-26T17:59:54;5.00;;;2.97;;
13445;SDS011;6795;51.232;3.764;2024-02-26T18:03:10;5.13;;;2.78;;
13445;SDS011;6795;51.232;3.764;2024-02-26T18:09:58;5.53;;;3.35;;
13445;SDS011;6795;51.232;3.764;2024-02-26T18:12:50;4.10;;;3.60;;
13445;SDS011;6795;51.232;3.764;2024-02-26T18:16:20;4.72;;;3.50;;
13445;SDS011;6795;51.232;3.764;2024-02-26T18:20:43;3.90;;;3.30;;
13445;SDS011;6795;51.232;3.764;2024-02-26T18:23:34;6.38;;;3.83;;
13445;SDS011;6795;51.232;3.764;2024-02-26T18:30:09;5.43;;;3.30;;
13445;SDS011;6795;51.232;3.764;2024-02-26T18:33:26;8.07;;;3.65;;
13445;SDS011;6795;51.232;3.764;2024-02-26T18:39:31;5.07;;;3.60;;
13445;SDS011;6795;51.232;3.764;2024-02-26T18:39:51;4.43;;;3.63;;
13445;SDS011;6795;51.232;3.764;2024-02-26T18:43:13;7.28;;;3.88;;
13445;SDS011;6795;51.232;3.764;2024-02-26T18:46:37;5.13;;;3.60;;
13445;SDS011;6795;51.232;3.764;2024-02-26T18:49:46;3.90;;;3.45;;
13445;SDS011;6795;51.232;3.764;2024-02-26T18:53:21;4.28;;;3.88;;
13445;SDS011;6795;51.232;3.764;2024-02-26T18:56:58;8.93;;;4.50;;
13445;SDS011;6795;51.232;3.764;2024-02-26T19:00:15;5.57;;;3.85;;
13445;SDS011;6795;51.232;3.764;2024-02-26T19:07:02;7.75;;;3.67;;
13445;SDS011;6795;51.232;3.764;2024-02-26T19:10:20;5.50;;;3.88;;
13445;SDS011;6795;51.232;3.764;2024-02-26T19:13:29;5.28;;;3.65;;
13445;SDS011;6795;51.232;3.764;2024-02-26T19:17:05;4.20;;;3.20;;
13445;SDS011;6795;51.232;3.764;2024-02-26T19:20:48;4.13;;;3.67;;
13445;SDS011;6795;51.232;3.764;2024-02-26T19:23:59;5.10;;;3.40;;
13445;SDS011;6795;51.232;3.764;2024-02-26T19:27:03;7.72;;;5.10;;
13445;SDS011;6795;51.232;3.764;2024-02-26T19:30:54;5.13;;;4.15;;
13445;SDS011;6795;51.232;3.764;2024-02-26T19:34:17;4.13;;;3.45;;
13445;SDS011;6795;51.232;3.764;2024-02-26T19:38:00;9.25;;;4.55;;
13445;SDS011;6795;51.232;3.764;2024-02-26T19:45:20;5.05;;;4.30;;
13445;SDS011;6795;51.232;3.764;2024-02-26T19:48:18;4.72;;;4.13;;
13445;SDS011;6795;51.232;3.764;2024-02-26T19:51:27;8.20;;;4.53;;
13445;SDS011;6795;51.232;3.764;2024-02-26T19:54:31;4.25;;;3.80;;
13445;SDS011;6795;51.232;3.764;2024-02-26T19:57:52;4.78;;;3.25;;
13445;SDS011;6795;51.232;3.764;2024-02-26T20:15:39;4.90;;;2.50;;
13445;SDS011;6795;51.232;3.764;2024-02-26T20:19:20;3.92;;;2.28;;
13445;SDS011;6795;51.232;3.764;2024-02-26T20:29:47;3.00;;;2.63;;
13445;SDS011;6795;51.232;3.764;2024-02-26T20:32:54;4.28;;;2.10;;
13445;SDS011;6795;51.232;3.764;2024-02-26T20:35:51;1.97;;;1.43;;
13445;SDS011;6795;51.232;3.764;2024-02-26T20:39:38;6.97;;;1.60;;
13445;SDS011;6795;51.232;3.764;2024-02-26T20:42:38;2.47;;;1.45;;
13445;SDS011;6795;51.232;3.764;2024-02-26T20:45:44;6.30;;;1.75;;
13445;SDS011;6795;51.232;3.764;2024-02-26T20:56:15;4.60;;;1.57;;
13445;SDS011;6795;51.232;3.764;2024-02-26T20:59:13;6.20;;;2.38;;
13445;SDS011;6795;51.232;3.764;2024-02-26T21:02:34;3.13;;;1.98;;
13445;SDS011;6795;51.232;3.764;2024-02-26T21:05:45;2.92;;;1.65;;
13445;SDS011;6795;51.232;3.764;2024-02-26T21:08:54;4.80;;;1.60;;
13445;SDS011;6795;51.232;3.764;2024-02-26T21:16:27;4.05;;;1.73;;
13445;SDS011;6795;51.232;3.764;2024-02-26T21:20:32;2.58;;;1.42;;
13445;SDS011;6795;51.232;3.764;2024-02-26T21:23:41;2.17;;;1.42;;
13445;SDS011;6795;51.232;3.764;2024-02-26T21:26:48;4.03;;;1.92;;
13445;SDS011;6795;51.232;3.764;2024-02-26T21:29:53;2.53;;;1.30;;
13445;SDS011;6795;51.232;3.764;2024-02-26T21:33:22;11.10;;;1.87;;
13445;SDS011;6795;51.232;3.764;2024-02-26T21:36:35;2.30;;;1.30;;
13445;SDS011;6795;51.232;3.764;2024-02-26T21:39:55;2.70;;;1.30;;
13445;SDS011;6795;51.232;3.764;2024-02-26T21:42:57;4.07;;;1.50;;
13445;SDS011;6795;51.232;3.764;2024-02-26T21:46:23;3.17;;;1.47;;
13445;SDS011;6795;51.232;3.764;2024-02-26T21:49:26;3.20;;;1.48;;
13445;SDS011;6795;51.232;3.764;2024-02-26T21:52:44;4.68;;;1.23;;
13445;SDS011;6795;51.232;3.764;2024-02-26T21:55:38;4.60;;;1.45;;
13445;SDS011;6795;51.232;3.764;2024-02-26T21:58:52;2.03;;;1.20;;
13445;SDS011;6795;51.232;3.764;2024-02-26T22:01:56;3.95;;;1.65;;
13445;SDS011;6795;51.232;3.764;2024-02-26T22:05:20;2.70;;;1.02;;
13445;SDS011;6795;51.232;3.764;2024-02-26T22:08:26;4.47;;;1.43;;
13445;SDS011;6795;51.232;3.764;2024-02-26T22:11:34;2.97;;;1.13;;
13445;SDS011;6795;51.232;3.764;2024-02-26T22:14:36;3.17;;;1.08;;
13445;SDS011;6795;51.232;3.764;2024-02-26T22:17:38;2.20;;;1.20;;
13445;SDS011;6795;51.232;3.764;2024-02-26T22:28:04;2.42;;;1.00;;
13445;SDS011;6795;51.232;3.764;2024-02-26T22:31:18;0.90;;;0.90;;
13445;SDS011;6795;51.232;3.764;2024-02-26T22:34:44;1.60;;;0.82;;
13445;SDS011;6795;51.232;3.764;2024-02-26T22:38:05;0.98;;;0.82;;
13445;SDS011;6795;51.232;3.764;2024-02-26T22:41:09;3.90;;;0.95;;
13445;SDS011;6795;51.232;3.764;2024-02-26T22:48:42;3.13;;;1.17;;
13445;SDS011;6795;51.232;3.764;2024-02-26T22:51:35;2.92;;;1.30;;
13445;SDS011;6795;51.232;3.764;2024-02-26T22:54:58;2.25;;;1.10;;
13445;SDS011;6795;51.232;3.764;2024-02-26T22:58:24;2.15;;;1.42;;
13445;SDS011;6795;51.232;3.764;2024-02-26T23:01:39;4.72;;;0.95;;
13445;SDS011;6795;51.232;3.764;2024-02-26T23:04:42;2.40;;;1.10;;
13445;SDS011;6795;51.232;3.764;2024-02-26T23:08:05;2.30;;;1.00;;
13445;SDS011;6795;51.232;3.764;2024-02-26T23:11:59;3.78;;;1.02;;
13445;SDS011;6795;51.232;3.764;2024-02-26T23:15:19;1.20;;;1.00;;
13445;SDS011;6795;51.232;3.764;2024-02-26T23:18:19;3.83;;;1.35;;
13445;SDS011;6795;51.232;3.764;2024-02-26T23:31:46;3.38;;;0.80;;
13445;SDS011;6795;51.232;3.764;2024-02-26T23:35:01;2.05;;;1.77;;
13445;SDS011;6795;51.232;3.764;2024-02-26T23:38:00;2.15;;;1.27;;
13445;SDS011;6795;51.232;3.764;2024-02-26T23:41:25;2.05;;;1.50;;
13445;SDS011;6795;51.232;3.764;2024-02-26T23:44:31;2.50;;;2.13;;
